sensor_id;sensor_type;location;lat;lon;timestamp;P1;durP1;ratioP1;P2;durP2;ratioP2
11481;SDS011;5797;51.662;6.748;2024-01-15T00:01:32;33.87;;;13.87;;
11481;SDS011;5797;51.662;6.748;2024-01-15T00:04:01;27.27;;;13.23;;
11481;SDS011;5797;51.662;6.748;2024-01-15T00:06:30;29.53;;;12.93;;
11481;SDS011;5797;51.662;6.748;2024-01-15T00:09:00;32.20;;;12.53;;
11481;SDS011;5797;51.662;6.748;2024-01-15T00:11:30;30.70;;;15.20;;
11481;SDS011;5797;51.662;6.748;2024-01-15T00:13:59;32.33;;;13.40;;
11481;SDS011;5797;51.662;6.748;2024-01-15T00:16:27;32.00;;;12.50;;
11481;SDS011;5797;51.662;6.748;2024-01-15T00:18:56;26.00;;;11.07;;
11481;SDS011;5797;51.662;6.748;2024-01-15T00:21:26;36.20;;;13.60;;
11481;SDS011;5797;51.662;6.748;2024-01-15T00:23:55;33.60;;;14.67;;
11481;SDS011;5797;51.662;6.748;2024-01-15T00:26:23;32.60;;;13.27;;
11481;SDS011;5797;51.662;6.748;2024-01-15T00:28:53;29.30;;;13.00;;
11481;SDS011;5797;51.662;6.748;2024-01-15T00:31:21;28.23;;;12.90;;
11481;SDS011;5797;51.662;6.748;2024-01-15T00:33:53;32.07;;;12.43;;
11481;SDS011;5797;51.662;6.748;2024-01-15T00:36:21;26.57;;;12.63;;
11481;SDS011;5797;51.662;6.748;2024-01-15T00:38:50;32.23;;;13.03;;
11481;SDS011;5797;51.662;6.748;2024-01-15T00:41:18;29.57;;;11.97;;
11481;SDS011;5797;51.662;6.748;2024-01-15T00:43:47;28.13;;;12.27;;
11481;SDS011;5797;51.662;6.748;2024-01-15T00:46:17;22.93;;;11.90;;
11481;SDS011;5797;51.662;6.748;2024-01-15T00:48:45;29.90;;;10.87;;
11481;SDS011;5797;51.662;6.748;2024-01-15T00:51:14;30.00;;;12.97;;
11481;SDS011;5797;51.662;6.748;2024-01-15T00:53:43;25.10;;;11.10;;
11481;SDS011;5797;51.662;6.748;2024-01-15T00:56:11;23.53;;;11.30;;
11481;SDS011;5797;51.662;6.748;2024-01-15T00:58:39;27.23;;;12.07;;
11481;SDS011;5797;51.662;6.748;2024-01-15T01:01:08;23.90;;;10.63;;
11481;SDS011;5797;51.662;6.748;2024-01-15T01:03:38;19.73;;;10.00;;
11481;SDS011;5797;51.662;6.748;2024-01-15T01:06:06;24.00;;;10.80;;
11481;SDS011;5797;51.662;6.748;2024-01-15T01:08:35;30.57;;;9.90;;
11481;SDS011;5797;51.662;6.748;2024-01-15T01:11:03;20.43;;;9.60;;
11481;SDS011;5797;51.662;6.748;2024-01-15T01:13:33;16.70;;;8.90;;
11481;SDS011;5797;51.662;6.748;2024-01-15T01:16:01;22.83;;;9.93;;
11481;SDS011;5797;51.662;6.748;2024-01-15T01:18:30;17.30;;;9.07;;
11481;SDS011;5797;51.662;6.748;2024-01-15T01:21:00;19.00;;;9.80;;
11481;SDS011;5797;51.662;6.748;2024-01-15T01:23:28;22.57;;;9.80;;
11481;SDS011;5797;51.662;6.748;2024-01-15T01:25:57;21.50;;;8.90;;
11481;SDS011;5797;51.662;6.748;2024-01-15T01:28:25;17.93;;;8.93;;
11481;SDS011;5797;51.662;6.748;2024-01-15T01:30:54;21.63;;;9.57;;
11481;SDS011;5797;51.662;6.748;2024-01-15T01:33:23;16.43;;;7.57;;
11481;SDS011;5797;51.662;6.748;2024-01-15T01:35:51;23.43;;;9.87;;
11481;SDS011;5797;51.662;6.748;2024-01-15T01:38:21;21.87;;;8.80;;
11481;SDS011;5797;51.662;6.748;2024-01-15T01:40:49;16.07;;;7.90;;
11481;SDS011;5797;51.662;6.748;2024-01-15T01:43:18;17.73;;;8.03;;
11481;SDS011;5797;51.662;6.748;2024-01-15T01:45:46;15.10;;;8.93;;
11481;SDS011;5797;51.662;6.748;2024-01-15T01:48:14;18.30;;;7.63;;
11481;SDS011;5797;51.662;6.748;2024-01-15T01:50:44;16.43;;;8.70;;
11481;SDS011;5797;51.662;6.748;2024-01-15T01:53:12;16.00;;;7.77;;
11481;SDS011;5797;51.662;6.748;2024-01-15T01:55:43;20.47;;;8.23;;
11481;SDS011;5797;51.662;6.748;2024-01-15T01:58:11;17.60;;;8.83;;
11481;SDS011;5797;51.662;6.748;2024-01-15T02:00:40;16.97;;;8.40;;
11481;SDS011;5797;51.662;6.748;2024-01-15T02:03:08;14.87;;;7.97;;
11481;SDS011;5797;51.662;6.748;2024-01-15T02:05:37;19.47;;;7.83;;
11481;SDS011;5797;51.662;6.748;2024-01-15T02:08:07;16.03;;;8.60;;
11481;SDS011;5797;51.662;6.748;2024-01-15T02:10:36;18.10;;;8.30;;
11481;SDS011;5797;51.662;6.748;2024-01-15T02:13:06;17.93;;;8.73;;
11481;SDS011;5797;51.662;6.748;2024-01-15T02:15:34;17.50;;;7.83;;
11481;SDS011;5797;51.662;6.748;2024-01-15T02:18:03;16.43;;;7.87;;
11481;SDS011;5797;51.662;6.748;2024-01-15T02:20:34;14.93;;;7.37;;
11481;SDS011;5797;51.662;6.748;2024-01-15T02:23:10;14.33;;;7.50;;
11481;SDS011;5797;51.662;6.748;2024-01-15T02:25:40;18.70;;;8.23;;
11481;SDS011;5797;51.662;6.748;2024-01-15T02:28:09;20.83;;;7.73;;
11481;SDS011;5797;51.662;6.748;2024-01-15T02:30:39;18.87;;;7.37;;
11481;SDS011;5797;51.662;6.748;2024-01-15T02:33:09;17.67;;;7.83;;
11481;SDS011;5797;51.662;6.748;2024-01-15T02:35:39;14.83;;;6.90;;
11481;SDS011;5797;51.662;6.748;2024-01-15T02:38:08;14.27;;;6.43;;
11481;SDS011;5797;51.662;6.748;2024-01-15T02:40:38;15.50;;;7.80;;
11481;SDS011;5797;51.662;6.748;2024-01-15T02:43:06;21.73;;;7.73;;
11481;SDS011;5797;51.662;6.748;2024-01-15T02:45:35;16.47;;;8.57;;
11481;SDS011;5797;51.662;6.748;2024-01-15T02:48:03;18.13;;;7.50;;
11481;SDS011;5797;51.662;6.748;2024-01-15T02:50:32;21.27;;;8.97;;
11481;SDS011;5797;51.662;6.748;2024-01-15T02:53:00;17.40;;;8.13;;
11481;SDS011;5797;51.662;6.748;2024-01-15T02:55:30;19.20;;;7.93;;
11481;SDS011;5797;51.662;6.748;2024-01-15T02:57:59;18.13;;;8.33;;
11481;SDS011;5797;51.662;6.748;2024-01-15T03:00:27;17.13;;;8.60;;
11481;SDS011;5797;51.662;6.748;2024-01-15T03:02:56;21.90;;;8.63;;
11481;SDS011;5797;51.662;6.748;2024-01-15T03:05:24;22.57;;;8.50;;
11481;SDS011;5797;51.662;6.748;2024-01-15T03:07:53;24.57;;;9.23;;
11481;SDS011;5797;51.662;6.748;2024-01-15T03:10:21;15.87;;;8.17;;
11481;SDS011;5797;51.662;6.748;2024-01-15T03:12:51;20.63;;;8.73;;
11481;SDS011;5797;51.662;6.748;2024-01-15T03:15:19;13.87;;;8.20;;
11481;SDS011;5797;51.662;6.748;2024-01-15T03:17:48;24.13;;;8.97;;
11481;SDS011;5797;51.662;6.748;2024-01-15T03:20:16;20.27;;;9.37;;
11481;SDS011;5797;51.662;6.748;2024-01-15T03:22:44;15.90;;;8.67;;
11481;SDS011;5797;51.662;6.748;2024-01-15T03:25:13;19.30;;;8.67;;
11481;SDS011;5797;51.662;6.748;2024-01-15T03:27:41;16.93;;;7.70;;
11481;SDS011;5797;51.662;6.748;2024-01-15T03:30:12;21.57;;;6.97;;
11481;SDS011;5797;51.662;6.748;2024-01-15T03:32:41;11.73;;;7.10;;
11481;SDS011;5797;51.662;6.748;2024-01-15T03:35:10;17.83;;;8.03;;
11481;SDS011;5797;51.662;6.748;2024-01-15T03:37:38;15.80;;;8.33;;
11481;SDS011;5797;51.662;6.748;2024-01-15T03:40:07;18.47;;;7.00;;
11481;SDS011;5797;51.662;6.748;2024-01-15T03:42:36;13.20;;;6.90;;
11481;SDS011;5797;51.662;6.748;2024-01-15T03:45:05;21.07;;;7.37;;
11481;SDS011;5797;51.662;6.748;2024-01-15T03:47:35;12.77;;;6.30;;
11481;SDS011;5797;51.662;6.748;2024-01-15T03:50:04;11.33;;;6.50;;
11481;SDS011;5797;51.662;6.748;2024-01-15T03:52:33;13.57;;;5.93;;
11481;SDS011;5797;51.662;6.748;2024-01-15T03:55:01;7.90;;;5.10;;
11481;SDS011;5797;51.662;6.748;2024-01-15T03:57:30;14.97;;;5.73;;
11481;SDS011;5797;51.662;6.748;2024-01-15T03:59:58;9.57;;;4.77;;
11481;SDS011;5797;51.662;6.748;2024-01-15T04:02:26;13.30;;;5.93;;
11481;SDS011;5797;51.662;6.748;2024-01-15T04:04:56;9.23;;;4.63;;
11481;SDS011;5797;51.662;6.748;2024-01-15T04:07:24;9.53;;;4.90;;
11481;SDS011;5797;51.662;6.748;2024-01-15T04:09:53;13.07;;;4.63;;
11481;SDS011;5797;51.662;6.748;2024-01-15T04:12:21;12.57;;;4.53;;
11481;SDS011;5797;51.662;6.748;2024-01-15T04:14:49;5.03;;;3.63;;
11481;SDS011;5797;51.662;6.748;2024-01-15T04:17:18;10.63;;;4.37;;
11481;SDS011;5797;51.662;6.748;2024-01-15T04:19:46;6.33;;;3.87;;
11481;SDS011;5797;51.662;6.748;2024-01-15T04:22:16;10.40;;;4.13;;
11481;SDS011;5797;51.662;6.748;2024-01-15T04:24:45;7.73;;;3.90;;
11481;SDS011;5797;51.662;6.748;2024-01-15T04:27:13;8.90;;;3.77;;
11481;SDS011;5797;51.662;6.748;2024-01-15T04:29:42;8.37;;;4.53;;
11481;SDS011;5797;51.662;6.748;2024-01-15T04:32:11;6.17;;;3.40;;
11481;SDS011;5797;51.662;6.748;2024-01-15T04:34:40;6.20;;;3.43;;
11481;SDS011;5797;51.662;6.748;2024-01-15T04:37:08;8.07;;;3.57;;
11481;SDS011;5797;51.662;6.748;2024-01-15T04:39:38;8.13;;;3.90;;
11481;SDS011;5797;51.662;6.748;2024-01-15T04:42:06;10.00;;;4.00;;
11481;SDS011;5797;51.662;6.748;2024-01-15T04:44:35;12.70;;;3.87;;
11481;SDS011;5797;51.662;6.748;2024-01-15T04:47:03;8.57;;;4.27;;
11481;SDS011;5797;51.662;6.748;2024-01-15T04:49:32;10.10;;;4.57;;
11481;SDS011;5797;51.662;6.748;2024-01-15T04:52:01;14.50;;;4.50;;
11481;SDS011;5797;51.662;6.748;2024-01-15T04:54:29;12.83;;;5.00;;
11481;SDS011;5797;51.662;6.748;2024-01-15T04:56:59;11.20;;;4.53;;
11481;SDS011;5797;51.662;6.748;2024-01-15T04:59:27;8.77;;;4.47;;
11481;SDS011;5797;51.662;6.748;2024-01-15T05:01:56;9.90;;;4.23;;
11481;SDS011;5797;51.662;6.748;2024-01-15T05:04:24;14.97;;;4.87;;
11481;SDS011;5797;51.662;6.748;2024-01-15T05:06:53;9.20;;;5.10;;
11481;SDS011;5797;51.662;6.748;2024-01-15T05:09:22;14.10;;;4.90;;
11481;SDS011;5797;51.662;6.748;2024-01-15T05:11:51;13.80;;;4.80;;
11481;SDS011;5797;51.662;6.748;2024-01-15T05:14:21;10.03;;;5.27;;
11481;SDS011;5797;51.662;6.748;2024-01-15T05:16:49;10.53;;;4.70;;
11481;SDS011;5797;51.662;6.748;2024-01-15T05:19:18;7.73;;;4.60;;
11481;SDS011;5797;51.662;6.748;2024-01-15T05:21:46;12.10;;;4.53;;
11481;SDS011;5797;51.662;6.748;2024-01-15T05:24:15;10.70;;;4.50;;
11481;SDS011;5797;51.662;6.748;2024-01-15T05:26:43;10.63;;;4.03;;
11481;SDS011;5797;51.662;6.748;2024-01-15T05:29:11;9.03;;;3.70;;
11481;SDS011;5797;51.662;6.748;2024-01-15T05:31:41;15.00;;;4.90;;
11481;SDS011;5797;51.662;6.748;2024-01-15T05:34:10;7.30;;;3.90;;
11481;SDS011;5797;51.662;6.748;2024-01-15T05:36:38;7.87;;;3.20;;
11481;SDS011;5797;51.662;6.748;2024-01-15T05:39:07;5.03;;;3.33;;
11481;SDS011;5797;51.662;6.748;2024-01-15T05:41:35;14.00;;;4.00;;
11481;SDS011;5797;51.662;6.748;2024-01-15T05:44:04;16.13;;;3.97;;
11481;SDS011;5797;51.662;6.748;2024-01-15T05:46:32;8.40;;;3.63;;
11481;SDS011;5797;51.662;6.748;2024-01-15T05:49:02;7.13;;;3.90;;
11481;SDS011;5797;51.662;6.748;2024-01-15T05:51:31;8.60;;;3.87;;
11481;SDS011;5797;51.662;6.748;2024-01-15T05:54:02;9.10;;;4.17;;
11481;SDS011;5797;51.662;6.748;2024-01-15T05:56:31;5.70;;;3.23;;
11481;SDS011;5797;51.662;6.748;2024-01-15T05:58:59;10.73;;;4.60;;
11481;SDS011;5797;51.662;6.748;2024-01-15T06:01:28;11.10;;;3.93;;
11481;SDS011;5797;51.662;6.748;2024-01-15T06:03:56;6.67;;;3.93;;
11481;SDS011;5797;51.662;6.748;2024-01-15T06:06:26;4.97;;;3.40;;
11481;SDS011;5797;51.662;6.748;2024-01-15T06:08:55;6.53;;;3.90;;
11481;SDS011;5797;51.662;6.748;2024-01-15T06:11:23;7.77;;;3.50;;
11481;SDS011;5797;51.662;6.748;2024-01-15T06:13:57;8.33;;;3.77;;
11481;SDS011;5797;51.662;6.748;2024-01-15T06:16:27;11.30;;;4.60;;
11481;SDS011;5797;51.662;6.748;2024-01-15T06:18:56;10.13;;;4.00;;
11481;SDS011;5797;51.662;6.748;2024-01-15T06:21:25;11.23;;;4.80;;
11481;SDS011;5797;51.662;6.748;2024-01-15T06:23:54;9.20;;;3.73;;
11481;SDS011;5797;51.662;6.748;2024-01-15T06:26:24;9.37;;;4.00;;
11481;SDS011;5797;51.662;6.748;2024-01-15T06:28:52;7.33;;;3.93;;
11481;SDS011;5797;51.662;6.748;2024-01-15T06:31:21;10.57;;;3.97;;
11481;SDS011;5797;51.662;6.748;2024-01-15T06:33:49;8.77;;;3.77;;
11481;SDS011;5797;51.662;6.748;2024-01-15T06:36:18;9.07;;;3.40;;
11481;SDS011;5797;51.662;6.748;2024-01-15T06:38:47;5.87;;;3.37;;
11481;SDS011;5797;51.662;6.748;2024-01-15T06:41:16;11.10;;;4.03;;
11481;SDS011;5797;51.662;6.748;2024-01-15T06:43:44;5.67;;;2.77;;
11481;SDS011;5797;51.662;6.748;2024-01-15T06:46:12;8.07;;;2.90;;
11481;SDS011;5797;51.662;6.748;2024-01-15T06:48:41;4.83;;;2.60;;
11481;SDS011;5797;51.662;6.748;2024-01-15T06:51:10;3.70;;;2.83;;
11481;SDS011;5797;51.662;6.748;2024-01-15T06:53:38;8.57;;;2.90;;
11481;SDS011;5797;51.662;6.748;2024-01-15T06:56:08;3.00;;;2.30;;
11481;SDS011;5797;51.662;6.748;2024-01-15T06:58:37;5.73;;;2.30;;
11481;SDS011;5797;51.662;6.748;2024-01-15T07:01:05;3.90;;;2.73;;
11481;SDS011;5797;51.662;6.748;2024-01-15T07:03:35;4.97;;;2.20;;
11481;SDS011;5797;51.662;6.748;2024-01-15T07:06:03;7.13;;;2.70;;
11481;SDS011;5797;51.662;6.748;2024-01-15T07:08:32;11.37;;;2.57;;
11481;SDS011;5797;51.662;6.748;2024-01-15T07:11:03;3.27;;;2.17;;
11481;SDS011;5797;51.662;6.748;2024-01-15T07:13:33;2.63;;;2.20;;
11481;SDS011;5797;51.662;6.748;2024-01-15T07:16:01;5.60;;;2.70;;
11481;SDS011;5797;51.662;6.748;2024-01-15T07:18:30;3.13;;;2.50;;
11481;SDS011;5797;51.662;6.748;2024-01-15T07:20:59;5.53;;;2.13;;
11481;SDS011;5797;51.662;6.748;2024-01-15T07:23:28;6.77;;;2.30;;
11481;SDS011;5797;51.662;6.748;2024-01-15T07:25:57;4.77;;;2.20;;
11481;SDS011;5797;51.662;6.748;2024-01-15T07:28:25;6.53;;;2.20;;
11481;SDS011;5797;51.662;6.748;2024-01-15T07:30:58;4.30;;;2.50;;
11481;SDS011;5797;51.662;6.748;2024-01-15T07:33:28;5.17;;;2.43;;
11481;SDS011;5797;51.662;6.748;2024-01-15T07:35:57;4.53;;;2.30;;
11481;SDS011;5797;51.662;6.748;2024-01-15T07:38:28;3.70;;;2.63;;
11481;SDS011;5797;51.662;6.748;2024-01-15T07:40:56;3.50;;;2.17;;
11481;SDS011;5797;51.662;6.748;2024-01-15T07:43:25;2.63;;;2.00;;
11481;SDS011;5797;51.662;6.748;2024-01-15T07:45:54;3.67;;;2.40;;
11481;SDS011;5797;51.662;6.748;2024-01-15T07:48:25;4.03;;;2.50;;
11481;SDS011;5797;51.662;6.748;2024-01-15T07:50:55;4.03;;;2.03;;
11481;SDS011;5797;51.662;6.748;2024-01-15T07:53:23;3.03;;;2.00;;
11481;SDS011;5797;51.662;6.748;2024-01-15T07:55:51;3.40;;;2.27;;
11481;SDS011;5797;51.662;6.748;2024-01-15T07:58:20;2.60;;;2.07;;
11481;SDS011;5797;51.662;6.748;2024-01-15T08:00:48;4.40;;;2.30;;
11481;SDS011;5797;51.662;6.748;2024-01-15T08:03:17;5.97;;;2.60;;
11481;SDS011;5797;51.662;6.748;2024-01-15T08:05:47;2.90;;;2.20;;
11481;SDS011;5797;51.662;6.748;2024-01-15T08:08:17;3.60;;;2.90;;
11481;SDS011;5797;51.662;6.748;2024-01-15T08:10:48;3.43;;;2.50;;
11481;SDS011;5797;51.662;6.748;2024-01-15T08:13:16;3.37;;;2.60;;
11481;SDS011;5797;51.662;6.748;2024-01-15T08:15:45;7.37;;;2.53;;
11481;SDS011;5797;51.662;6.748;2024-01-15T08:18:13;4.00;;;2.40;;
11481;SDS011;5797;51.662;6.748;2024-01-15T08:20:42;5.57;;;2.97;;
11481;SDS011;5797;51.662;6.748;2024-01-15T08:23:12;6.73;;;3.30;;
11481;SDS011;5797;51.662;6.748;2024-01-15T08:25:40;5.63;;;2.77;;
11481;SDS011;5797;51.662;6.748;2024-01-15T08:28:08;3.27;;;2.47;;
11481;SDS011;5797;51.662;6.748;2024-01-15T08:30:37;4.20;;;2.30;;
11481;SDS011;5797;51.662;6.748;2024-01-15T08:33:05;3.83;;;2.77;;
11481;SDS011;5797;51.662;6.748;2024-01-15T08:35:37;3.83;;;2.40;;
11481;SDS011;5797;51.662;6.748;2024-01-15T08:38:05;6.27;;;3.10;;
11481;SDS011;5797;51.662;6.748;2024-01-15T08:40:35;3.67;;;2.43;;
11481;SDS011;5797;51.662;6.748;2024-01-15T08:43:03;3.90;;;2.70;;
11481;SDS011;5797;51.662;6.748;2024-01-15T08:45:33;7.17;;;2.83;;
11481;SDS011;5797;51.662;6.748;2024-01-15T08:48:02;7.60;;;2.80;;
11481;SDS011;5797;51.662;6.748;2024-01-15T08:50:31;4.27;;;2.87;;
11481;SDS011;5797;51.662;6.748;2024-01-15T08:53:00;2.63;;;1.80;;
11481;SDS011;5797;51.662;6.748;2024-01-15T08:55:29;3.40;;;2.20;;
11481;SDS011;5797;51.662;6.748;2024-01-15T08:57:59;3.70;;;2.40;;
11481;SDS011;5797;51.662;6.748;2024-01-15T09:00:27;1.93;;;1.53;;
11481;SDS011;5797;51.662;6.748;2024-01-15T09:02:56;1.70;;;1.40;;
11481;SDS011;5797;51.662;6.748;2024-01-15T09:05:24;4.33;;;1.90;;
11481;SDS011;5797;51.662;6.748;2024-01-15T09:07:53;1.57;;;1.37;;
11481;SDS011;5797;51.662;6.748;2024-01-15T09:10:22;2.50;;;1.60;;
11481;SDS011;5797;51.662;6.748;2024-01-15T09:12:51;4.90;;;2.07;;
11481;SDS011;5797;51.662;6.748;2024-01-15T09:15:20;2.47;;;1.30;;
11481;SDS011;5797;51.662;6.748;2024-01-15T09:17:49;2.63;;;1.83;;
11481;SDS011;5797;51.662;6.748;2024-01-15T09:20:17;3.70;;;2.00;;
11481;SDS011;5797;51.662;6.748;2024-01-15T09:22:46;2.90;;;1.53;;
11481;SDS011;5797;51.662;6.748;2024-01-15T09:25:15;2.37;;;1.87;;
11481;SDS011;5797;51.662;6.748;2024-01-15T09:27:43;3.27;;;1.90;;
11481;SDS011;5797;51.662;6.748;2024-01-15T09:30:12;2.50;;;1.63;;
11481;SDS011;5797;51.662;6.748;2024-01-15T09:32:42;4.93;;;2.17;;
11481;SDS011;5797;51.662;6.748;2024-01-15T09:35:10;3.50;;;2.07;;
11481;SDS011;5797;51.662;6.748;2024-01-15T09:37:39;2.67;;;2.10;;
11481;SDS011;5797;51.662;6.748;2024-01-15T09:40:12;5.67;;;2.63;;
11481;SDS011;5797;51.662;6.748;2024-01-15T09:42:41;3.17;;;2.10;;
11481;SDS011;5797;51.662;6.748;2024-01-15T09:45:10;3.23;;;2.10;;
11481;SDS011;5797;51.662;6.748;2024-01-15T09:47:39;2.63;;;2.13;;
11481;SDS011;5797;51.662;6.748;2024-01-15T09:50:11;3.10;;;2.30;;
11481;SDS011;5797;51.662;6.748;2024-01-15T09:52:42;5.77;;;2.53;;
11481;SDS011;5797;51.662;6.748;2024-01-15T09:55:11;3.97;;;2.43;;
11481;SDS011;5797;51.662;6.748;2024-01-15T09:57:43;4.03;;;2.83;;
11481;SDS011;5797;51.662;6.748;2024-01-15T10:00:13;3.30;;;2.27;;
11481;SDS011;5797;51.662;6.748;2024-01-15T10:02:44;3.83;;;2.57;;
11481;SDS011;5797;51.662;6.748;2024-01-15T10:05:13;4.80;;;2.53;;
11481;SDS011;5797;51.662;6.748;2024-01-15T10:07:43;7.10;;;2.80;;
11481;SDS011;5797;51.662;6.748;2024-01-15T10:10:14;5.73;;;3.43;;
11481;SDS011;5797;51.662;6.748;2024-01-15T10:12:42;8.33;;;3.57;;
11481;SDS011;5797;51.662;6.748;2024-01-15T10:15:11;5.83;;;2.90;;
11481;SDS011;5797;51.662;6.748;2024-01-15T10:17:40;4.10;;;2.50;;
11481;SDS011;5797;51.662;6.748;2024-01-15T10:20:11;6.97;;;2.50;;
11481;SDS011;5797;51.662;6.748;2024-01-15T10:22:40;5.23;;;3.00;;
11481;SDS011;5797;51.662;6.748;2024-01-15T10:25:10;6.50;;;2.70;;
11481;SDS011;5797;51.662;6.748;2024-01-15T10:27:39;3.67;;;2.50;;
11481;SDS011;5797;51.662;6.748;2024-01-15T10:30:09;5.27;;;2.53;;
11481;SDS011;5797;51.662;6.748;2024-01-15T10:32:41;5.57;;;2.60;;
11481;SDS011;5797;51.662;6.748;2024-01-15T10:35:11;6.17;;;2.63;;
11481;SDS011;5797;51.662;6.748;2024-01-15T10:37:41;7.23;;;2.83;;
11481;SDS011;5797;51.662;6.748;2024-01-15T10:40:10;2.83;;;2.20;;
11481;SDS011;5797;51.662;6.748;2024-01-15T10:42:39;7.17;;;3.00;;
11481;SDS011;5797;51.662;6.748;2024-01-15T10:45:08;4.07;;;2.53;;
11481;SDS011;5797;51.662;6.748;2024-01-15T10:47:37;3.60;;;2.10;;
11481;SDS011;5797;51.662;6.748;2024-01-15T10:50:07;3.73;;;2.50;;
11481;SDS011;5797;51.662;6.748;2024-01-15T10:52:38;3.73;;;2.13;;
11481;SDS011;5797;51.662;6.748;2024-01-15T10:55:08;4.87;;;2.40;;
11481;SDS011;5797;51.662;6.748;2024-01-15T10:57:40;4.23;;;2.50;;
11481;SDS011;5797;51.662;6.748;2024-01-15T11:00:09;3.27;;;2.20;;
11481;SDS011;5797;51.662;6.748;2024-01-15T11:02:42;5.33;;;1.63;;
11481;SDS011;5797;51.662;6.748;2024-01-15T11:05:12;3.83;;;2.00;;
11481;SDS011;5797;51.662;6.748;2024-01-15T11:07:41;4.37;;;2.40;;
11481;SDS011;5797;51.662;6.748;2024-01-15T11:13:08;2.93;;;1.90;;
11481;SDS011;5797;51.662;6.748;2024-01-15T11:15:54;8.20;;;1.90;;
11481;SDS011;5797;51.662;6.748;2024-01-15T11:18:27;3.03;;;1.67;;
11481;SDS011;5797;51.662;6.748;2024-01-15T11:23:52;2.23;;;1.50;;
11481;SDS011;5797;51.662;6.748;2024-01-15T11:26:30;2.93;;;2.00;;
11481;SDS011;5797;51.662;6.748;2024-01-15T11:29:01;2.27;;;1.57;;
11481;SDS011;5797;51.662;6.748;2024-01-15T11:37:19;5.67;;;2.80;;
11481;SDS011;5797;51.662;6.748;2024-01-15T11:39:50;4.80;;;2.53;;
11481;SDS011;5797;51.662;6.748;2024-01-15T11:42:19;6.77;;;3.10;;
11481;SDS011;5797;51.662;6.748;2024-01-15T11:44:48;5.10;;;3.50;;
11481;SDS011;5797;51.662;6.748;2024-01-15T11:47:29;9.17;;;3.53;;
11481;SDS011;5797;51.662;6.748;2024-01-15T11:50:08;11.17;;;3.87;;
11481;SDS011;5797;51.662;6.748;2024-01-15T11:52:38;5.00;;;3.80;;
11481;SDS011;5797;51.662;6.748;2024-01-15T11:55:12;6.53;;;3.80;;
11481;SDS011;5797;51.662;6.748;2024-01-15T11:57:45;5.73;;;3.77;;
11481;SDS011;5797;51.662;6.748;2024-01-15T12:00:14;8.37;;;5.30;;
11481;SDS011;5797;51.662;6.748;2024-01-15T12:02:44;8.53;;;3.70;;
11481;SDS011;5797;51.662;6.748;2024-01-15T12:05:14;6.37;;;3.93;;
11481;SDS011;5797;51.662;6.748;2024-01-15T12:07:44;7.93;;;3.00;;
11481;SDS011;5797;51.662;6.748;2024-01-15T12:10:16;4.20;;;2.87;;
11481;SDS011;5797;51.662;6.748;2024-01-15T12:12:49;5.00;;;2.87;;
11481;SDS011;5797;51.662;6.748;2024-01-15T12:15:27;4.40;;;2.50;;
11481;SDS011;5797;51.662;6.748;2024-01-15T12:17:57;3.03;;;2.27;;
11481;SDS011;5797;51.662;6.748;2024-01-15T12:20:27;3.83;;;2.53;;
11481;SDS011;5797;51.662;6.748;2024-01-15T12:22:55;8.17;;;2.47;;
11481;SDS011;5797;51.662;6.748;2024-01-15T12:25:28;3.63;;;2.27;;
11481;SDS011;5797;51.662;6.748;2024-01-15T12:27:57;3.10;;;2.50;;
11481;SDS011;5797;51.662;6.748;2024-01-15T12:30:27;3.97;;;2.07;;
11481;SDS011;5797;51.662;6.748;2024-01-15T12:32:55;3.77;;;2.00;;
11481;SDS011;5797;51.662;6.748;2024-01-15T12:35:24;4.13;;;2.20;;
11481;SDS011;5797;51.662;6.748;2024-01-15T12:37:54;4.57;;;2.50;;
11481;SDS011;5797;51.662;6.748;2024-01-15T12:40:23;3.70;;;2.37;;
11481;SDS011;5797;51.662;6.748;2024-01-15T12:42:52;3.80;;;2.30;;
11481;SDS011;5797;51.662;6.748;2024-01-15T12:45:20;3.80;;;2.17;;
11481;SDS011;5797;51.662;6.748;2024-01-15T12:47:49;2.77;;;1.40;;
11481;SDS011;5797;51.662;6.748;2024-01-15T12:50:18;6.87;;;2.37;;
11481;SDS011;5797;51.662;6.748;2024-01-15T12:52:47;5.60;;;1.90;;
11481;SDS011;5797;51.662;6.748;2024-01-15T12:55:15;4.50;;;2.10;;
11481;SDS011;5797;51.662;6.748;2024-01-15T12:57:44;4.80;;;2.47;;
11481;SDS011;5797;51.662;6.748;2024-01-15T13:00:15;3.00;;;2.20;;
11481;SDS011;5797;51.662;6.748;2024-01-15T13:02:43;5.13;;;2.23;;
11481;SDS011;5797;51.662;6.748;2024-01-15T13:05:12;5.17;;;1.70;;
11481;SDS011;5797;51.662;6.748;2024-01-15T13:07:41;3.17;;;1.60;;
11481;SDS011;5797;51.662;6.748;2024-01-15T13:10:11;2.97;;;2.00;;
11481;SDS011;5797;51.662;6.748;2024-01-15T13:12:40;3.70;;;1.43;;
11481;SDS011;5797;51.662;6.748;2024-01-15T13:15:09;1.60;;;1.33;;
11481;SDS011;5797;51.662;6.748;2024-01-15T13:17:41;8.30;;;1.63;;
11481;SDS011;5797;51.662;6.748;2024-01-15T13:20:10;3.47;;;2.03;;
11481;SDS011;5797;51.662;6.748;2024-01-15T13:22:40;3.17;;;1.83;;
11481;SDS011;5797;51.662;6.748;2024-01-15T13:25:11;4.13;;;1.50;;
11481;SDS011;5797;51.662;6.748;2024-01-15T13:27:39;5.13;;;1.40;;
11481;SDS011;5797;51.662;6.748;2024-01-15T13:30:10;5.97;;;1.70;;
11481;SDS011;5797;51.662;6.748;2024-01-15T13:32:41;7.13;;;1.60;;
11481;SDS011;5797;51.662;6.748;2024-01-15T13:35:09;4.23;;;1.77;;
11481;SDS011;5797;51.662;6.748;2024-01-15T13:37:40;9.97;;;2.33;;
11481;SDS011;5797;51.662;6.748;2024-01-15T13:40:09;4.70;;;2.00;;
11481;SDS011;5797;51.662;6.748;2024-01-15T13:42:43;4.53;;;1.53;;
11481;SDS011;5797;51.662;6.748;2024-01-15T13:45:13;5.17;;;1.40;;
11481;SDS011;5797;51.662;6.748;2024-01-15T13:47:43;3.70;;;1.50;;
11481;SDS011;5797;51.662;6.748;2024-01-15T13:50:12;4.77;;;1.43;;
11481;SDS011;5797;51.662;6.748;2024-01-15T13:52:41;1.20;;;1.10;;
11481;SDS011;5797;51.662;6.748;2024-01-15T13:55:09;3.20;;;1.57;;
11481;SDS011;5797;51.662;6.748;2024-01-15T13:57:38;2.23;;;1.37;;
11481;SDS011;5797;51.662;6.748;2024-01-15T14:00:07;1.60;;;1.50;;
11481;SDS011;5797;51.662;6.748;2024-01-15T14:02:39;3.20;;;1.80;;
11481;SDS011;5797;51.662;6.748;2024-01-15T14:05:09;2.27;;;1.67;;
11481;SDS011;5797;51.662;6.748;2024-01-15T14:07:39;3.97;;;1.87;;
11481;SDS011;5797;51.662;6.748;2024-01-15T14:10:09;3.83;;;1.73;;
11481;SDS011;5797;51.662;6.748;2024-01-15T14:12:38;5.00;;;1.80;;
11481;SDS011;5797;51.662;6.748;2024-01-15T14:15:07;3.20;;;1.63;;
11481;SDS011;5797;51.662;6.748;2024-01-15T14:17:36;3.93;;;1.77;;
11481;SDS011;5797;51.662;6.748;2024-01-15T14:20:06;3.60;;;1.70;;
11481;SDS011;5797;51.662;6.748;2024-01-15T14:22:38;1.77;;;1.50;;
11481;SDS011;5797;51.662;6.748;2024-01-15T14:25:07;4.67;;;1.43;;
11481;SDS011;5797;51.662;6.748;2024-01-15T14:27:36;4.17;;;1.60;;
11481;SDS011;5797;51.662;6.748;2024-01-15T14:30:05;2.93;;;1.70;;
11481;SDS011;5797;51.662;6.748;2024-01-15T14:32:35;1.50;;;1.30;;
11481;SDS011;5797;51.662;6.748;2024-01-15T14:35:04;2.10;;;1.77;;
11481;SDS011;5797;51.662;6.748;2024-01-15T14:37:35;3.73;;;1.67;;
11481;SDS011;5797;51.662;6.748;2024-01-15T14:40:05;4.00;;;1.97;;
11481;SDS011;5797;51.662;6.748;2024-01-15T14:42:35;3.10;;;1.50;;
11481;SDS011;5797;51.662;6.748;2024-01-15T14:45:04;2.33;;;1.50;;
11481;SDS011;5797;51.662;6.748;2024-01-15T14:47:38;2.07;;;1.23;;
11481;SDS011;5797;51.662;6.748;2024-01-15T14:50:08;2.27;;;1.37;;
11481;SDS011;5797;51.662;6.748;2024-01-15T14:52:39;2.37;;;1.57;;
11481;SDS011;5797;51.662;6.748;2024-01-15T14:55:10;2.77;;;1.23;;
11481;SDS011;5797;51.662;6.748;2024-01-15T14:57:39;2.50;;;1.43;;
11481;SDS011;5797;51.662;6.748;2024-01-15T15:00:07;1.83;;;1.30;;
11481;SDS011;5797;51.662;6.748;2024-01-15T15:02:36;3.73;;;1.23;;
11481;SDS011;5797;51.662;6.748;2024-01-15T15:05:05;4.90;;;1.27;;
11481;SDS011;5797;51.662;6.748;2024-01-15T15:07:34;3.87;;;1.20;;
11481;SDS011;5797;51.662;6.748;2024-01-15T15:10:03;6.97;;;1.50;;
11481;SDS011;5797;51.662;6.748;2024-01-15T15:12:33;1.53;;;1.10;;
11481;SDS011;5797;51.662;6.748;2024-01-15T15:15:02;2.07;;;1.00;;
11481;SDS011;5797;51.662;6.748;2024-01-15T15:17:34;1.60;;;1.10;;
11481;SDS011;5797;51.662;6.748;2024-01-15T15:20:02;2.07;;;1.37;;